sensor_id;sensor_type;location;lat;lon;timestamp;pressure;altitude;pressure_sealevel;temperature;humidity
25526;BME280;13424;48.424;11.258;2023-12-07T00:01:43;95787.56;;;4.18;77.04
25526;BME280;13424;48.424;11.258;2023-12-07T00:04:09;95792.97;;;4.38;75.62
25526;BME280;13424;48.424;11.258;2023-12-07T00:06:35;95790.41;;;4.16;75.22
25526;BME280;13424;48.424;11.258;2023-12-07T00:09:01;95788.94;;;4.07;75.03
25526;BME280;13424;48.424;11.258;2023-12-07T00:11:27;95791.88;;;4.19;74.78
25526;BME280;13424;48.424;11.258;2023-12-07T00:13:53;95787.88;;;3.95;75.54
25526;BME280;13424;48.424;11.258;2023-12-07T00:16:19;95785.06;;;4.03;75.22
25526;BME280;13424;48.424;11.258;2023-12-07T00:18:45;95784.22;;;3.96;75.30
25526;BME280;13424;48.424;11.258;2023-12-07T00:21:11;95786.50;;;3.78;75.59
25526;BME280;13424;48.424;11.258;2023-12-07T00:23:37;95796.06;;;3.79;74.63
25526;BME280;13424;48.424;11.258;2023-12-07T00:26:05;95792.06;;;3.61;74.86
25526;BME280;13424;48.424;11.258;2023-12-07T00:28:31;95799.47;;;3.73;74.05
25526;BME280;13424;48.424;11.258;2023-12-07T00:30:57;95801.09;;;3.74;74.21
25526;BME280;13424;48.424;11.258;2023-12-07T00:33:23;95806.75;;;3.71;74.72
25526;BME280;13424;48.424;11.258;2023-12-07T00:35:49;95805.22;;;3.83;74.93
25526;BME280;13424;48.424;11.258;2023-12-07T00:38:15;95809.34;;;3.92;74.36
25526;BME280;13424;48.424;11.258;2023-12-07T00:40:41;95803.56;;;3.75;74.50
25526;BME280;13424;48.424;11.258;2023-12-07T00:43:08;95810.91;;;3.86;74.97
25526;BME280;13424;48.424;11.258;2023-12-07T00:45:34;95808.94;;;3.88;74.86
25526;BME280;13424;48.424;11.258;2023-12-07T00:48:00;95815.13;;;4.09;74.40
25526;BME280;13424;48.424;11.258;2023-12-07T00:50:26;95831.56;;;4.04;75.18
25526;BME280;13424;48.424;11.258;2023-12-07T00:52:52;95817.97;;;4.07;75.65
25526;BME280;13424;48.424;11.258;2023-12-07T00:55:18;95828.44;;;3.94;76.58
25526;BME280;13424;48.424;11.258;2023-12-07T00:57:44;95823.75;;;3.89;76.97
25526;BME280;13424;48.424;11.258;2023-12-07T01:00:10;95822.50;;;4.13;76.20
25526;BME280;13424;48.424;11.258;2023-12-07T01:02:37;95828.31;;;4.37;75.18
25526;BME280;13424;48.424;11.258;2023-12-07T01:05:03;95831.41;;;4.47;74.96
25526;BME280;13424;48.424;11.258;2023-12-07T01:07:29;95834.03;;;4.47;75.08
25526;BME280;13424;48.424;11.258;2023-12-07T01:09:55;95834.91;;;4.54;74.40
25526;BME280;13424;48.424;11.258;2023-12-07T01:12:21;95830.66;;;4.60;74.45
25526;BME280;13424;48.424;11.258;2023-12-07T01:14:47;95831.66;;;4.52;74.13
25526;BME280;13424;48.424;11.258;2023-12-07T01:17:13;95837.78;;;4.59;74.01
25526;BME280;13424;48.424;11.258;2023-12-07T01:19:39;95838.75;;;4.17;75.30
25526;BME280;13424;48.424;11.258;2023-12-07T01:22:06;95837.47;;;4.06;76.19
25526;BME280;13424;48.424;11.258;2023-12-07T01:24:32;95847.56;;;3.96;76.45
25526;BME280;13424;48.424;11.258;2023-12-07T01:26:58;95846.25;;;4.13;76.48
25526;BME280;13424;48.424;11.258;2023-12-07T01:29:24;95850.75;;;4.19;75.88
25526;BME280;13424;48.424;11.258;2023-12-07T01:31:51;95857.53;;;4.29;76.02
25526;BME280;13424;48.424;11.258;2023-12-07T01:34:18;95854.97;;;4.14;75.63
25526;BME280;13424;48.424;11.258;2023-12-07T01:36:46;95851.78;;;4.25;75.56
25526;BME280;13424;48.424;11.258;2023-12-07T01:39:12;95863.19;;;3.98;76.38
25526;BME280;13424;48.424;11.258;2023-12-07T01:41:40;95859.81;;;4.10;76.17
25526;BME280;13424;48.424;11.258;2023-12-07T01:44:07;95860.91;;;4.57;74.81
25526;BME280;13424;48.424;11.258;2023-12-07T01:47:29;95864.78;;;4.55;74.95
25526;BME280;13424;48.424;11.258;2023-12-07T01:49:56;95859.75;;;4.66;74.25
25526;BME280;13424;48.424;11.258;2023-12-07T01:52:23;95868.44;;;4.54;74.14
25526;BME280;13424;48.424;11.258;2023-12-07T01:54:50;95867.38;;;4.48;74.09
25526;BME280;13424;48.424;11.258;2023-12-07T01:57:16;95869.59;;;4.44;74.61
25526;BME280;13424;48.424;11.258;2023-12-07T01:59:43;95868.03;;;4.22;73.78
25526;BME280;13424;48.424;11.258;2023-12-07T02:02:19;95870.09;;;4.27;74.25
25526;BME280;13424;48.424;11.258;2023-12-07T02:04:45;95878.59;;;4.22;74.77
25526;BME280;13424;48.424;11.258;2023-12-07T02:07:11;95868.78;;;4.44;74.14
25526;BME280;13424;48.424;11.258;2023-12-07T02:09:37;95870.88;;;4.20;75.07
25526;BME280;13424;48.424;11.258;2023-12-07T02:15:48;95874.59;;;4.33;74.16
25526;BME280;13424;48.424;11.258;2023-12-07T02:18:45;95869.25;;;4.19;75.10
25526;BME280;13424;48.424;11.258;2023-12-07T02:21:34;95867.38;;;4.48;74.19
25526;BME280;13424;48.424;11.258;2023-12-07T02:24:05;95877.13;;;4.47;74.42
25526;BME280;13424;48.424;11.258;2023-12-07T02:26:36;95872.03;;;4.46;74.66
25526;BME280;13424;48.424;11.258;2023-12-07T02:29:03;95870.63;;;4.15;75.84
25526;BME280;13424;48.424;11.258;2023-12-07T02:31:30;95870.91;;;4.27;75.58
25526;BME280;13424;48.424;11.258;2023-12-07T02:34:40;95881.22;;;4.57;74.88
25526;BME280;13424;48.424;11.258;2023-12-07T02:37:07;95876.16;;;4.55;74.25
25526;BME280;13424;48.424;11.258;2023-12-07T02:39:33;95873.13;;;4.58;74.39
25526;BME280;13424;48.424;11.258;2023-12-07T02:41:59;95875.13;;;4.56;74.37
25526;BME280;13424;48.424;11.258;2023-12-07T02:44:26;95877.22;;;4.61;74.68
25526;BME280;13424;48.424;11.258;2023-12-07T02:46:52;95886.16;;;4.60;73.50
25526;BME280;13424;48.424;11.258;2023-12-07T02:49:18;95886.63;;;4.42;74.72
25526;BME280;13424;48.424;11.258;2023-12-07T02:51:44;95881.59;;;4.47;74.53
25526;BME280;13424;48.424;11.258;2023-12-07T02:54:10;95884.00;;;4.42;74.38
25526;BME280;13424;48.424;11.258;2023-12-07T02:56:36;95890.53;;;4.46;74.79
25526;BME280;13424;48.424;11.258;2023-12-07T02:59:02;95876.56;;;4.52;74.51
25526;BME280;13424;48.424;11.258;2023-12-07T03:01:28;95887.84;;;4.39;74.94
25526;BME280;13424;48.424;11.258;2023-12-07T03:03:57;95883.16;;;4.35;75.52
25526;BME280;13424;48.424;11.258;2023-12-07T03:06:23;95880.78;;;4.46;75.76
25526;BME280;13424;48.424;11.258;2023-12-07T03:08:49;95883.13;;;4.69;74.49
25526;BME280;13424;48.424;11.258;2023-12-07T03:11:15;95880.47;;;4.63;74.60
25526;BME280;13424;48.424;11.258;2023-12-07T03:13:41;95884.38;;;4.39;75.03
25526;BME280;13424;48.424;11.258;2023-12-07T03:16:09;95893.03;;;4.54;74.83
25526;BME280;13424;48.424;11.258;2023-12-07T03:18:37;95893.47;;;4.64;74.64
25526;BME280;13424;48.424;11.258;2023-12-07T03:21:03;95895.84;;;4.53;74.24
25526;BME280;13424;48.424;11.258;2023-12-07T03:23:38;95896.50;;;4.61;73.98
25526;BME280;13424;48.424;11.258;2023-12-07T03:26:04;95893.31;;;4.72;73.50
25526;BME280;13424;48.424;11.258;2023-12-07T03:28:30;95895.53;;;4.69;72.92
25526;BME280;13424;48.424;11.258;2023-12-07T03:30:56;95894.56;;;4.76;72.86
25526;BME280;13424;48.424;11.258;2023-12-07T03:33:23;95897.28;;;4.96;72.54
25526;BME280;13424;48.424;11.258;2023-12-07T03:35:49;95895.91;;;4.59;73.47
25526;BME280;13424;48.424;11.258;2023-12-07T03:38:15;95899.50;;;4.52;73.22
25526;BME280;13424;48.424;11.258;2023-12-07T03:40:41;95898.91;;;4.56;73.51
25526;BME280;13424;48.424;11.258;2023-12-07T03:43:07;95896.75;;;4.66;73.42
25526;BME280;13424;48.424;11.258;2023-12-07T03:45:33;95899.13;;;4.55;73.88
25526;BME280;13424;48.424;11.258;2023-12-07T03:47:59;95900.75;;;4.97;72.39
25526;BME280;13424;48.424;11.258;2023-12-07T03:50:25;95906.19;;;4.89;73.16
25526;BME280;13424;48.424;11.258;2023-12-07T03:52:51;95895.53;;;4.34;74.04
25526;BME280;13424;48.424;11.258;2023-12-07T03:55:17;95904.50;;;4.40;74.59
25526;BME280;13424;48.424;11.258;2023-12-07T03:57:43;95902.75;;;4.88;72.79
25526;BME280;13424;48.424;11.258;2023-12-07T04:01:12;95903.00;;;5.00;72.26
25526;BME280;13424;48.424;11.258;2023-12-07T04:03:38;95900.56;;;4.98;72.05
25526;BME280;13424;48.424;11.258;2023-12-07T04:06:05;95899.13;;;4.96;71.83
25526;BME280;13424;48.424;11.258;2023-12-07T04:08:31;95895.41;;;4.84;72.24
25526;BME280;13424;48.424;11.258;2023-12-07T04:10:57;95898.63;;;4.79;72.42
25526;BME280;13424;48.424;11.258;2023-12-07T04:13:23;95904.53;;;4.81;72.04
25526;BME280;13424;48.424;11.258;2023-12-07T04:15:49;95903.72;;;4.81;72.28
25526;BME280;13424;48.424;11.258;2023-12-07T04:18:15;95901.25;;;4.72;71.96
25526;BME280;13424;48.424;11.258;2023-12-07T04:20:41;95910.25;;;4.85;71.60
25526;BME280;13424;48.424;11.258;2023-12-07T04:23:07;95911.38;;;4.34;73.43
25526;BME280;13424;48.424;11.258;2023-12-07T04:25:33;95910.63;;;4.75;71.97
25526;BME280;13424;48.424;11.258;2023-12-07T04:27:59;95914.06;;;4.75;71.50
25526;BME280;13424;48.424;11.258;2023-12-07T04:30:25;95916.09;;;4.39;72.67
25526;BME280;13424;48.424;11.258;2023-12-07T04:32:51;95917.28;;;4.71;71.23
25526;BME280;13424;48.424;11.258;2023-12-07T04:35:17;95922.31;;;4.59;71.66
25526;BME280;13424;48.424;11.258;2023-12-07T04:37:43;95924.31;;;4.51;71.32
25526;BME280;13424;48.424;11.258;2023-12-07T04:40:11;95923.84;;;3.91;72.05
25526;BME280;13424;48.424;11.258;2023-12-07T04:42:37;95923.69;;;4.20;72.83
25526;BME280;13424;48.424;11.258;2023-12-07T04:45:03;95929.09;;;4.68;71.04
25526;BME280;13424;48.424;11.258;2023-12-07T04:47:30;95930.59;;;4.84;70.92
25526;BME280;13424;48.424;11.258;2023-12-07T04:49:57;95924.09;;;4.87;70.30
25526;BME280;13424;48.424;11.258;2023-12-07T04:52:23;95924.84;;;4.81;70.84
25526;BME280;13424;48.424;11.258;2023-12-07T04:54:49;95932.41;;;4.49;70.25
25526;BME280;13424;48.424;11.258;2023-12-07T04:57:15;95934.91;;;3.80;72.05
25526;BME280;13424;48.424;11.258;2023-12-07T04:59:42;95945.63;;;2.70;76.93
25526;BME280;13424;48.424;11.258;2023-12-07T05:02:16;95943.66;;;3.08;75.57
25526;BME280;13424;48.424;11.258;2023-12-07T05:04:44;95941.94;;;3.73;73.09
25526;BME280;13424;48.424;11.258;2023-12-07T05:07:13;95946.84;;;2.15;78.80
25526;BME280;13424;48.424;11.258;2023-12-07T05:09:40;95947.94;;;3.45;75.26
25526;BME280;13424;48.424;11.258;2023-12-07T05:12:09;95952.97;;;3.40;74.61
25526;BME280;13424;48.424;11.258;2023-12-07T05:14:35;95945.97;;;3.69;73.11
25526;BME280;13424;48.424;11.258;2023-12-07T05:17:07;95942.94;;;3.93;72.48
25526;BME280;13424;48.424;11.258;2023-12-07T05:19:33;95952.50;;;3.73;72.49
25526;BME280;13424;48.424;11.258;2023-12-07T05:21:59;95956.31;;;2.83;76.75
25526;BME280;13424;48.424;11.258;2023-12-07T05:24:25;95942.59;;;4.03;72.39
25526;BME280;13424;48.424;11.258;2023-12-07T05:26:51;95937.91;;;3.98;71.04
25526;BME280;13424;48.424;11.258;2023-12-07T05:29:18;95937.28;;;3.96;70.33
25526;BME280;13424;48.424;11.258;2023-12-07T05:31:44;95936.41;;;3.89;70.47
25526;BME280;13424;48.424;11.258;2023-12-07T05:34:11;95937.28;;;3.53;71.10
25526;BME280;13424;48.424;11.258;2023-12-07T05:36:37;95940.69;;;2.82;72.78
25526;BME280;13424;48.424;11.258;2023-12-07T05:39:03;95939.88;;;2.22;73.21
25526;BME280;13424;48.424;11.258;2023-12-07T05:41:29;95939.25;;;2.79;72.87
25526;BME280;13424;48.424;11.258;2023-12-07T05:43:55;95948.25;;;2.70;72.86
25526;BME280;13424;48.424;11.258;2023-12-07T05:46:49;95955.41;;;2.46;73.09
25526;BME280;13424;48.424;11.258;2023-12-07T05:49:16;95946.44;;;2.70;72.39
25526;BME280;13424;48.424;11.258;2023-12-07T05:51:42;95943.81;;;2.70;72.33
25526;BME280;13424;48.424;11.258;2023-12-07T05:54:08;95952.81;;;2.61;72.21
25526;BME280;13424;48.424;11.258;2023-12-07T05:56:34;95947.03;;;2.28;73.17
25526;BME280;13424;48.424;11.258;2023-12-07T05:59:00;95952.88;;;2.53;72.11
25526;BME280;13424;48.424;11.258;2023-12-07T06:01:26;95951.78;;;2.47;71.90
25526;BME280;13424;48.424;11.258;2023-12-07T06:03:52;95950.16;;;2.46;71.58
25526;BME280;13424;48.424;11.258;2023-12-07T06:06:18;95946.22;;;2.42;71.88
25526;BME280;13424;48.424;11.258;2023-12-07T06:08:47;95952.56;;;2.18;72.13
25526;BME280;13424;48.424;11.258;2023-12-07T06:12:22;95943.88;;;2.47;71.30
25526;BME280;13424;48.424;11.258;2023-12-07T06:14:49;95950.66;;;2.27;70.29
25526;BME280;13424;48.424;11.258;2023-12-07T06:17:16;95953.13;;;2.43;69.73
25526;BME280;13424;48.424;11.258;2023-12-07T06:19:42;95955.81;;;2.20;69.31
25526;BME280;13424;48.424;11.258;2023-12-07T06:22:08;95944.59;;;2.41;70.17
25526;BME280;13424;48.424;11.258;2023-12-07T06:24:35;95953.03;;;2.51;70.21
25526;BME280;13424;48.424;11.258;2023-12-07T06:27:38;95954.28;;;2.26;69.60
25526;BME280;13424;48.424;11.258;2023-12-07T06:30:06;95959.44;;;2.19;69.36
25526;BME280;13424;48.424;11.258;2023-12-07T06:32:32;95956.84;;;2.34;68.83
25526;BME280;13424;48.424;11.258;2023-12-07T06:35:00;95956.41;;;2.60;69.42
25526;BME280;13424;48.424;11.258;2023-12-07T06:37:27;95957.59;;;2.58;70.38
25526;BME280;13424;48.424;11.258;2023-12-07T06:39:53;95958.13;;;2.38;69.79
25526;BME280;13424;48.424;11.258;2023-12-07T06:42:19;95956.22;;;2.32;69.61
25526;BME280;13424;48.424;11.258;2023-12-07T06:44:48;95951.56;;;2.34;68.50
25526;BME280;13424;48.424;11.258;2023-12-07T06:47:15;95952.41;;;2.35;69.49
25526;BME280;13424;48.424;11.258;2023-12-07T06:49:41;95952.66;;;2.25;69.02
25526;BME280;13424;48.424;11.258;2023-12-07T06:52:08;95951.56;;;2.34;69.64
25526;BME280;13424;48.424;11.258;2023-12-07T06:54:34;95953.69;;;2.39;69.40
25526;BME280;13424;48.424;11.258;2023-12-07T06:57:00;95952.78;;;2.46;69.83
25526;BME280;13424;48.424;11.258;2023-12-07T06:59:26;95959.75;;;2.39;69.96
25526;BME280;13424;48.424;11.258;2023-12-07T07:01:52;95954.22;;;2.49;69.81
25526;BME280;13424;48.424;11.258;2023-12-07T07:04:18;95963.94;;;1.73;71.50
25526;BME280;13424;48.424;11.258;2023-12-07T07:06:44;95963.66;;;1.14;75.95
25526;BME280;13424;48.424;11.258;2023-12-07T07:13:36;95978.31;;;2.61;68.72
25526;BME280;13424;48.424;11.258;2023-12-07T07:16:02;95979.38;;;2.51;68.96
25526;BME280;13424;48.424;11.258;2023-12-07T07:18:28;95976.97;;;2.27;69.92
25526;BME280;13424;48.424;11.258;2023-12-07T07:20:55;95974.59;;;2.55;68.31
25526;BME280;13424;48.424;11.258;2023-12-07T07:23:21;95982.84;;;2.37;69.57
25526;BME280;13424;48.424;11.258;2023-12-07T07:25:47;95981.75;;;2.76;69.00
25526;BME280;13424;48.424;11.258;2023-12-07T07:28:13;95977.50;;;2.90;67.53
25526;BME280;13424;48.424;11.258;2023-12-07T07:30:39;95976.91;;;3.24;68.60
25526;BME280;13424;48.424;11.258;2023-12-07T07:33:06;95976.81;;;3.32;68.25
25526;BME280;13424;48.424;11.258;2023-12-07T07:35:32;95975.38;;;3.15;68.70
25526;BME280;13424;48.424;11.258;2023-12-07T07:37:58;95980.22;;;3.47;68.96
25526;BME280;13424;48.424;11.258;2023-12-07T07:40:24;95985.16;;;3.93;67.43
25526;BME280;13424;48.424;11.258;2023-12-07T07:42:50;95982.19;;;4.03;66.66
25526;BME280;13424;48.424;11.258;2023-12-07T07:45:17;95974.88;;;4.19;66.33
25526;BME280;13424;48.424;11.258;2023-12-07T07:47:43;95982.09;;;3.89;67.06
25526;BME280;13424;48.424;11.258;2023-12-07T07:50:10;95980.75;;;4.00;67.19
25526;BME280;13424;48.424;11.258;2023-12-07T07:52:36;95979.69;;;3.95;67.29
25526;BME280;13424;48.424;11.258;2023-12-07T07:55:04;95985.47;;;4.54;67.01
25526;BME280;13424;48.424;11.258;2023-12-07T07:57:31;95987.19;;;4.40;66.86
25526;BME280;13424;48.424;11.258;2023-12-07T07:59:58;95983.81;;;4.25;66.95
25526;BME280;13424;48.424;11.258;2023-12-07T08:02:24;95990.31;;;4.79;65.98
25526;BME280;13424;48.424;11.258;2023-12-07T08:04:50;95986.59;;;4.66;65.85
25526;BME280;13424;48.424;11.258;2023-12-07T08:07:18;95975.91;;;4.81;65.51
25526;BME280;13424;48.424;11.258;2023-12-07T08:09:44;95978.38;;;4.55;66.37
25526;BME280;13424;48.424;11.258;2023-12-07T08:12:13;95980.59;;;4.86;65.69
25526;BME280;13424;48.424;11.258;2023-12-07T08:14:39;95974.19;;;5.01;65.63
25526;BME280;13424;48.424;11.258;2023-12-07T08:17:05;95977.16;;;5.26;64.70
25526;BME280;13424;48.424;11.258;2023-12-07T08:19:31;95972.81;;;5.67;63.59
25526;BME280;13424;48.424;11.258;2023-12-07T08:21:57;95968.88;;;6.17;61.62
25526;BME280;13424;48.424;11.258;2023-12-07T08:24:23;95980.84;;;5.32;62.88
25526;BME280;13424;48.424;11.258;2023-12-07T08:26:51;95981.47;;;5.95;62.63
25526;BME280;13424;48.424;11.258;2023-12-07T08:29:17;95977.28;;;5.59;62.78
25526;BME280;13424;48.424;11.258;2023-12-07T08:31:43;95972.34;;;5.43;62.50
25526;BME280;13424;48.424;11.258;2023-12-07T08:34:09;95966.03;;;5.44;63.09
25526;BME280;13424;48.424;11.258;2023-12-07T08:36:35;95964.19;;;5.45;63.44
25526;BME280;13424;48.424;11.258;2023-12-07T08:39:01;95976.03;;;5.01;63.41
25526;BME280;13424;48.424;11.258;2023-12-07T08:41:27;95973.63;;;5.06;63.73
25526;BME280;13424;48.424;11.258;2023-12-07T08:43:53;95975.25;;;5.07;63.53
25526;BME280;13424;48.424;11.258;2023-12-07T08:46:19;95966.50;;;5.13;63.85
25526;BME280;13424;48.424;11.258;2023-12-07T08:48:45;95976.31;;;5.19;64.17
25526;BME280;13424;48.424;11.258;2023-12-07T08:51:11;95971.50;;;5.29;63.71
25526;BME280;13424;48.424;11.258;2023-12-07T08:53:39;95982.78;;;5.10;64.42
25526;BME280;13424;48.424;11.258;2023-12-07T08:56:05;95974.81;;;5.51;62.72
25526;BME280;13424;48.424;11.258;2023-12-07T08:58:31;95982.38;;;5.68;62.08
25526;BME280;13424;48.424;11.258;2023-12-07T09:00:57;95978.72;;;5.62;62.29
25526;BME280;13424;48.424;11.258;2023-12-07T09:03:23;95981.97;;;4.75;64.14
25526;BME280;13424;48.424;11.258;2023-12-07T09:05:54;95983.81;;;5.16;64.21
25526;BME280;13424;48.424;11.258;2023-12-07T09:08:20;95974.28;;;5.15;63.67
25526;BME280;13424;48.424;11.258;2023-12-07T09:10:46;95977.41;;;4.97;63.33
25526;BME280;13424;48.424;11.258;2023-12-07T09:13:12;95974.47;;;4.79;64.44
25526;BME280;13424;48.424;11.258;2023-12-07T09:15:38;95977.59;;;4.95;64.89
25526;BME280;13424;48.424;11.258;2023-12-07T09:18:04;95969.56;;;4.75;64.90
25526;BME280;13424;48.424;11.258;2023-12-07T09:20:30;95968.25;;;4.58;64.77
25526;BME280;13424;48.424;11.258;2023-12-07T09:22:56;95975.78;;;4.96;63.92
25526;BME280;13424;48.424;11.258;2023-12-07T09:25:23;95961.38;;;5.46;62.67
25526;BME280;13424;48.424;11.258;2023-12-07T09:27:49;95959.69;;;4.56;65.10
25526;BME280;13424;48.424;11.258;2023-12-07T09:30:17;95970.28;;;4.63;65.81
25526;BME280;13424;48.424;11.258;2023-12-07T09:33:48;95968.50;;;4.42;66.13
25526;BME280;13424;48.424;11.258;2023-12-07T09:36:18;95971.00;;;5.19;63.83
25526;BME280;13424;48.424;11.258;2023-12-07T09:38:47;95964.50;;;5.15;64.00
25526;BME280;13424;48.424;11.258;2023-12-07T09:41:14;95962.78;;;5.49;63.21
25526;BME280;13424;48.424;11.258;2023-12-07T09:43:40;95970.91;;;6.08;60.90
25526;BME280;13424;48.424;11.258;2023-12-07T09:46:06;95968.84;;;5.97;60.44
25526;BME280;13424;48.424;11.258;2023-12-07T09:48:33;95961.00;;;4.73;63.70
25526;BME280;13424;48.424;11.258;2023-12-07T09:51:00;95968.66;;;6.12;61.24
25526;BME280;13424;48.424;11.258;2023-12-07T09:53:33;95957.50;;;5.01;63.33
25526;BME280;13424;48.424;11.258;2023-12-07T09:55:59;95954.53;;;4.76;64.65
25526;BME280;13424;48.424;11.258;2023-12-07T09:58:26;95960.38;;;4.71;65.51
25526;BME280;13424;48.424;11.258;2023-12-07T10:00:52;95960.16;;;5.55;62.77
25526;BME280;13424;48.424;11.258;2023-12-07T10:03:23;95959.09;;;6.24;60.98
25526;BME280;13424;48.424;11.258;2023-12-07T10:05:58;95955.63;;;6.50;59.84
25526;BME280;13424;48.424;11.258;2023-12-07T10:08:33;95963.78;;;6.29;61.36
25526;BME280;13424;48.424;11.258;2023-12-07T10:11:10;95955.31;;;5.72;62.56
25526;BME280;13424;48.424;11.258;2023-12-07T10:13:39;95952.97;;;6.37;61.41
25526;BME280;13424;48.424;11.258;2023-12-07T10:16:15;95945.09;;;5.49;62.02
25526;BME280;13424;48.424;11.258;2023-12-07T10:18:42;95941.91;;;4.15;66.29
25526;BME280;13424;48.424;11.258;2023-12-07T10:21:09;95941.84;;;4.99;65.84
25526;BME280;13424;48.424;11.258;2023-12-07T10:23:39;95940.44;;;5.58;62.52
25526;BME280;13424;48.424;11.258;2023-12-07T10:26:06;95938.22;;;4.72;64.84
25526;BME280;13424;48.424;11.258;2023-12-07T10:28:35;95934.88;;;4.01;66.56
25526;BME280;13424;48.424;11.258;2023-12-07T10:31:09;95941.75;;;6.15;61.89
25526;BME280;13424;48.424;11.258;2023-12-07T10:33:35;95931.34;;;6.66;59.08
25526;BME280;13424;48.424;11.258;2023-12-07T10:36:03;95925.78;;;7.39;57.19
25526;BME280;13424;48.424;11.258;2023-12-07T10:42:34;95931.09;;;6.88;58.69
25526;BME280;13424;48.424;11.258;2023-12-07T10:45:05;95914.69;;;6.33;60.42
25526;BME280;13424;48.424;11.258;2023-12-07T10:47:39;95921.13;;;6.70;58.84
25526;BME280;13424;48.424;11.258;2023-12-07T10:50:10;95913.69;;;7.12;57.97
25526;BME280;13424;48.424;11.258;2023-12-07T10:52:52;95906.28;;;7.27;56.06
25526;BME280;13424;48.424;11.258;2023-12-07T10:55:28;95902.38;;;6.71;56.61
25526;BME280;13424;48.424;11.258;2023-12-07T10:57:55;95898.63;;;7.44;55.97
25526;BME280;13424;48.424;11.258;2023-12-07T11:00:22;95907.31;;;7.57;56.79
25526;BME280;13424;48.424;11.258;2023-12-07T11:02:55;95910.94;;;6.80;56.88
25526;BME280;13424;48.424;11.258;2023-12-07T11:05:21;95917.72;;;6.36;58.19
25526;BME280;13424;48.424;11.258;2023-12-07T11:08:06;95912.03;;;6.33;57.64
25526;BME280;13424;48.424;11.258;2023-12-07T11:11:02;95910.06;;;6.93;57.13
25526;BME280;13424;48.424;11.258;2023-12-07T11:13:36;95900.28;;;7.38;56.38
25526;BME280;13424;48.424;11.258;2023-12-07T11:16:05;95903.59;;;7.65;55.87
25526;BME280;13424;48.424;11.258;2023-12-07T11:18:31;95890.00;;;7.87;55.29
25526;BME280;13424;48.424;11.258;2023-12-07T11:20:58;95893.38;;;8.00;55.01
25526;BME280;13424;48.424;11.258;2023-12-07T11:23:27;95888.31;;;7.92;54.41
25526;BME280;13424;48.424;11.258;2023-12-07T11:25:54;95878.56;;;7.86;54.21
25526;BME280;13424;48.424;11.258;2023-12-07T11:28:38;95879.78;;;8.58;53.02
25526;BME280;13424;48.424;11.258;2023-12-07T11:31:09;95866.84;;;8.19;53.17
25526;BME280;13424;48.424;11.258;2023-12-07T11:33:38;95871.81;;;8.33;53.37
25526;BME280;13424;48.424;11.258;2023-12-07T11:36:09;95866.97;;;7.42;56.65
25526;BME280;13424;48.424;11.258;2023-12-07T11:41:44;95852.72;;;7.43;55.83
25526;BME280;13424;48.424;11.258;2023-12-07T11:44:11;95853.16;;;7.34;56.34
25526;BME280;13424;48.424;11.258;2023-12-07T11:46:38;95847.69;;;7.60;56.27
25526;BME280;13424;48.424;11.258;2023-12-07T11:49:04;95844.88;;;7.80;56.44
25526;BME280;13424;48.424;11.258;2023-12-07T11:51:34;95856.13;;;7.82;55.22
25526;BME280;13424;48.424;11.258;2023-12-07T11:54:00;95845.81;;;7.92;54.27
25526;BME280;13424;48.424;11.258;2023-12-07T12:00:22;95856.16;;;8.25;53.89
25526;BME280;13424;48.424;11.258;2023-12-07T12:02:48;95855.50;;;8.05;53.17
25526;BME280;13424;48.424;11.258;2023-12-07T12:05:14;95835.97;;;7.99;53.31
25526;BME280;13424;48.424;11.258;2023-12-07T12:08:36;95822.28;;;7.08;55.29
25526;BME280;13424;48.424;11.258;2023-12-07T12:11:02;95821.69;;;6.48;56.93
25526;BME280;13424;48.424;11.258;2023-12-07T12:13:36;95833.09;;;6.55;56.56
25526;BME280;13424;48.424;11.258;2023-12-07T12:16:04;95841.25;;;6.47;56.37
25526;BME280;13424;48.424;11.258;2023-12-07T12:18:30;95816.34;;;6.67;55.25
25526;BME280;13424;48.424;11.258;2023-12-07T12:20:56;95813.69;;;6.67;54.15
25526;BME280;13424;48.424;11.258;2023-12-07T12:23:25;95812.88;;;7.12;54.60
25526;BME280;13424;48.424;11.258;2023-12-07T12:25:51;95820.22;;;7.10;54.91
25526;BME280;13424;48.424;11.258;2023-12-07T12:28:19;95832.44;;;7.11;55.89
25526;BME280;13424;48.424;11.258;2023-12-07T12:30:48;95834.22;;;6.79;56.79
25526;BME280;13424;48.424;11.258;2023-12-07T12:33:14;95835.63;;;7.26;55.40
25526;BME280;13424;48.424;11.258;2023-12-07T12:35:41;95820.69;;;7.00;55.57
25526;BME280;13424;48.424;11.258;2023-12-07T12:38:12;95821.56;;;7.25;55.34
25526;BME280;13424;48.424;11.258;2023-12-07T12:40:39;95817.16;;;7.13;55.52
25526;BME280;13424;48.424;11.258;2023-12-07T12:43:07;95823.31;;;7.70;55.84
25526;BME280;13424;48.424;11.258;2023-12-07T12:45:33;95826.28;;;8.30;54.33
25526;BME280;13424;48.424;11.258;2023-12-07T12:48:00;95821.03;;;7.73;55.19
25526;BME280;13424;48.424;11.258;2023-12-07T12:50:40;95813.56;;;7.32;56.58
25526;BME280;13424;48.424;11.258;2023-12-07T12:53:09;95802.69;;;7.40;55.50
25526;BME280;13424;48.424;11.258;2023-12-07T12:55:41;95807.66;;;7.62;55.06
25526;BME280;13424;48.424;11.258;2023-12-07T12:58:09;95800.47;;;7.06;55.80
25526;BME280;13424;48.424;11.258;2023-12-07T13:00:39;95797.09;;;6.79;57.20
25526;BME280;13424;48.424;11.258;2023-12-07T13:03:07;95789.00;;;6.74;57.11
25526;BME280;13424;48.424;11.258;2023-12-07T13:05:33;95784.66;;;7.17;56.96
25526;BME280;13424;48.424;11.258;2023-12-07T13:08:01;95785.06;;;7.21;55.96
25526;BME280;13424;48.424;11.258;2023-12-07T13:10:28;95787.31;;;6.79;56.87
25526;BME280;13424;48.424;11.258;2023-12-07T13:12:54;95783.41;;;6.37;56.85
25526;BME280;13424;48.424;11.258;2023-12-07T13:15:22;95767.50;;;6.37;56.82
25526;BME280;13424;48.424;11.258;2023-12-07T13:17:48;95763.44;;;6.34;58.12
25526;BME280;13424;48.424;11.258;2023-12-07T13:20:23;95756.41;;;6.66;56.29
25526;BME280;13424;48.424;11.258;2023-12-07T13:22:49;95761.94;;;5.94;56.98
25526;BME280;13424;48.424;11.258;2023-12-07T13:25:15;95760.66;;;5.76;58.36
25526;BME280;13424;48.424;11.258;2023-12-07T13:27:42;95744.59;;;5.91;58.88